Flight Track Log - Related Links

Times and Time Zones

All times are in EST time to prevent confusion due to time zone crossing. See the N92PS flight status page for this flight to view local times or setup timezone preferences in your user account.

Time Position Orientation Groundspeed Altitude Reporting Facility
EST Latitude Longitude Course Direction KTS MPH feet Rate Location/Type
Wed 01:55:47 PM 42.3936 -82.9953 114° Southeast 122 140 1,400  Level Cleveland Center
Wed 01:57:06 PM 42.3519 -82.9642 151° Southeast 130 150 2,800 957 Climbing Cleveland Center
Wed 01:57:21 PM 42.3519 -82.9619 90° East 123 142 2,900 1,065 Climbing Cleveland Center
Wed 01:58:08 PM 42.3403 -82.9231 112° Southeast 119 137 3,900 1,065 Climbing Cleveland Center
Wed 01:58:23 PM 42.3414 -82.9214 48° Northeast 121 139 4,000 787 Climbing Cleveland Center
Wed 01:59:09 PM 42.3356 -82.8744 100° East 135 155 4,700 871 Climbing Cleveland Center
Wed 01:59:25 PM 42.3372 -82.8622 80° East 127 146 4,900 885 Climbing Cleveland Center
Wed 02:00:10 PM 42.3417 -82.8214 82° East 139 160 5,600 774 Climbing Cleveland Center
Wed 02:00:27 PM 42.3425 -82.8092 85° East 137 158 5,700 735 Climbing Cleveland Center
Wed 02:00:59 PM 42.3428 -82.7764 89° East 149 171 6,200 774 Climbing Cleveland Center
Wed 02:01:00 PM 42.3713 -82.6472 114° Southeast  Level FlightAware Approximate
Wed 02:01:29 PM 42.3450 -82.7525 83° East 146 168 6,500  Level Cleveland Center
Wed 02:02:00 PM 42.3492 -82.7181 81° East 152 175 7,100 774 Climbing Cleveland Center
Wed 02:02:31 PM 42.3533 -82.6972 75° East 146 168 7,300 839 Climbing Cleveland Center
Wed 02:03:33 PM 42.3597 -82.6417 81° East 147 169 8,400 871 Climbing Cleveland Center
Wed 02:04:35 PM 42.3658 -82.5839 82° East 150 173 9,100 339 Climbing Cleveland Center
Wed 02:05:37 PM 42.3689 -82.5022 87° East 179 206 9,100 -48 Level Cleveland Center
Wed 02:06:39 PM 42.3675 -82.4250 91° East 200 230 9,000 242 Descending Cleveland Center
Wed 02:07:41 PM 42.3569 -82.3497 101° East 203 234 9,600 677 Climbing Cleveland Center
Wed 02:08:43 PM 42.3497 -82.2847 99° East 184 212 10,400 823 Climbing Cleveland Center
Wed 02:09:45 PM 42.3425 -82.2197 99° East 179 206 11,300 823 Climbing Cleveland Center
Wed 02:10:47 PM 42.3367 -82.1592 97° East 170 196 12,100 774 Climbing Cleveland Center
Wed 02:11:49 PM 42.3281 -82.0794 98° East 174 200 12,900 484 Climbing Cleveland Center
Wed 02:12:51 PM 42.3211 -82.0061 97° East 190 219 13,100 97 Climbing Cleveland Center
Wed 02:13:53 PM 42.3106 -81.9214 100° East 217 250 13,100 -75 Level Cleveland Center
Wed 02:19:32 PM 42.2552 -81.4392 93° East 226 260 12,600 -16 Descending FlightAware ADS-B (CYYZ)
Wed 02:20:06 PM 42.2525 -81.3947 93° East 229 264 13,000 250 Climbing Cleveland Center
Wed 02:21:08 PM 42.2411 -81.3083 100° East 229 264 13,000 -57 Level Cleveland Center
Wed 02:27:07 PM 42.1851 -80.7883 100° East 234 269 12,600 -65 Descending FlightAware ADS-B (EPLB / LUZ)
Wed 02:27:19 PM 42.1823 -80.7689 101° East 235 270 12,600  Level FlightAware ADS-B (CYYZ)
Wed 02:27:46 PM 42.1801 -80.7539 100° East 234 269 12,600 194 Level FlightAware ADS-B (CYYZ)
Wed 02:27:50 PM 42.1765 -80.7243 99° East 234 269 12,700 176 Climbing FlightAware ADS-B (EPLB / LUZ)
Wed 02:28:20 PM 42.1740 -80.7026 99° East 236 272 12,700 -125 Level FlightAware ADS-B (CYYZ)
Wed 02:28:38 PM 42.1693 -80.6632 99° East 240 276 12,600 -125 Descending FlightAware ADS-B (EPLB / LUZ)
Wed 02:29:08 PM 42.1637 -80.6103 98° East 237 273 12,600  Level FlightAware ADS-B (EPLB / LUZ)
Wed 02:29:18 PM 42.1634 -80.6073 97° East 238 274 12,600 -188 Level FlightAware ADS-B (CYYZ)
Wed 02:29:40 PM 42.1596 -80.5642 97° East 238 274 12,500  Descending FlightAware ADS-B (EPLB / LUZ)
Wed 02:30:11 PM 42.1563 -80.5216 96° East 234 269 12,600 81 Climbing FlightAware ADS-B (EPLB / LUZ)
Wed 02:30:54 PM 42.1508 -80.4554 96° East 235 270 12,600  Level FlightAware ADS-B (CYYZ)
Wed 02:31:13 PM 42.1486 -80.4287 97° East 235 270 12,600  Level FlightAware ADS-B (EPLB / LUZ)
Wed 02:31:24 PM 42.1478 -80.4200 97° East 235 270 12,600  Level FlightAware ADS-B (CYYZ)
Wed 02:31:55 PM 42.1420 -80.3677 99° East 239 275 12,600  Level FlightAware ADS-B (CYYZ)
Wed 02:32:29 PM 42.1350 -80.3167 101° East 237 273 12,600  Level FlightAware ADS-B (CYYZ)
Wed 02:32:59 PM 42.1288 -80.2737 101° East 235 270 12,600  Level FlightAware ADS-B (CYYZ)
Wed 02:33:29 PM 42.1222 -80.2309 101° East 239 275 12,600  Level FlightAware ADS-B (CYYZ)
Wed 02:33:40 PM 42.1212 -80.2244 102° East 238 274 12,600  Level FlightAware ADS-B (EPLB / LUZ)
Wed 02:33:59 PM 42.1158 -80.1877 100° East 238 274 12,600  Level FlightAware ADS-B (CYYZ)
Wed 02:34:40 PM 42.1091 -80.1295 99° East 240 276 12,600 67 Level FlightAware ADS-B (CYYZ)
Wed 02:35:29 PM 42.1003 -80.0559 99° East 236 272 12,700  Climbing FlightAware ADS-B (CYYZ)
Wed 02:36:00 PM 42.0948 -80.0122 99° East 238 274 12,600 -71 Descending FlightAware ADS-B (CYYZ)
Wed 02:36:54 PM 42.0832 -79.9326 102° East 240 276 12,600  Level FlightAware ADS-B (CYYZ)
Wed 02:37:35 PM 42.0744 -79.8744 100° East 240 276 12,600  Level FlightAware ADS-B (CYYZ)
Wed 02:38:05 PM 42.0687 -79.8302 99° East 241 277 12,600  Level FlightAware ADS-B (CYYZ)
Wed 02:38:34 PM 42.0636 -79.7884 99° East 241 277 12,600  Level FlightAware ADS-B (CYYZ)
Wed 02:39:30 PM 42.0535 -79.7050 100° East 240 276 12,600  Level FlightAware ADS-B (CYYZ)
Wed 02:39:59 PM 42.0485 -79.6642 99° East 242 278 12,600  Level FlightAware ADS-B (CYYZ)
Wed 02:40:02 PM 42.0476 -79.6573 100° East 241 277 12,600  Level FlightAware ADS-B (EPLB / LUZ)
Wed 02:40:30 PM 42.0430 -79.6164 98° East 243 280 12,600 150 Level FlightAware ADS-B (CYYZ)
Wed 02:40:42 PM 42.0414 -79.5994 97° East 241 277 12,700  Climbing FlightAware ADS-B (EPLB / LUZ)
Wed 02:41:04 PM 42.0401 -79.5841 95° East 245 282 12,600 -150 Descending FlightAware ADS-B (CYYZ)
Wed 02:41:22 PM 42.0368 -79.5390 95° East 247 284 12,600 -207 Level FlightAware ADS-B (EPLB / LUZ)
Wed 02:41:33 PM 42.0359 -79.5250 94° East 251 289 12,500 -600 Descending FlightAware ADS-B (CYYZ)
Wed 02:42:02 PM 42.0328 -79.4750 96° East 256 295 12,200 -156 Descending FlightAware ADS-B (CYYZ)
Wed 02:42:50 PM 42.0269 -79.4203 96° East 252 290 12,300  Climbing Cleveland Center
Wed 02:43:52 PM 42.0128 -79.3108 100° East 252 290 12,200 -48 Descending Cleveland Center
Wed 02:44:54 PM 41.9989 -79.2247 102° East 240 276 12,200  Level Cleveland Center
Wed 02:45:56 PM 41.9864 -79.1369 101° East 238 274 12,200 48 Level Cleveland Center
Wed 02:46:58 PM 41.9719 -79.0525 103° East 236 272 12,300  Climbing Cleveland Center
Wed 02:47:59 PM 41.9617 -78.9667 99° East 236 272 12,200 -49 Descending Cleveland Center
Wed 02:49:01 PM 41.9536 -78.8792 97° East 236 272 12,200  Level Cleveland Center
Wed 02:50:03 PM 41.9422 -78.7747 98° East 236 272 12,200  Level Cleveland Center
Wed 02:51:05 PM 41.9311 -78.6872 100° East 236 272 12,200  Level Cleveland Center
Wed 02:52:07 PM 41.9203 -78.6003 99° East 236 272 12,200 -97 Level Cleveland Center
Wed 02:53:09 PM 41.9097 -78.5131 99° East 237 273 12,000 -48 Descending Cleveland Center
Wed 02:54:11 PM 41.8981 -78.4244 100° East 237 273 12,100 48 Climbing Cleveland Center
Wed 02:55:13 PM 41.8864 -78.3358 100° East 237 273 12,100 -48 Level Cleveland Center
Wed 02:56:15 PM 41.8708 -78.2306 101° East 238 274 12,000 -145 Descending Cleveland Center
Wed 02:57:17 PM 41.8572 -78.1428 102° East 238 274 11,800 -484 Descending Cleveland Center
Wed 02:58:19 PM 41.8403 -78.0492 104° East 250 288 11,000 -387 Descending Cleveland Center
Wed 02:59:21 PM 41.8239 -77.9575 103° East 255 293 11,000 94 Level Cleveland Center
Wed 03:00:26 PM 41.8114 -77.8675 101° East 245 282 11,200 48 Climbing New York Center
Wed 03:01:26 PM 41.8022 -77.7775 98° East 245 282 11,100 -50 Descending New York Center
Wed 03:02:26 PM 41.7928 -77.6900 98° East 240 276 11,100  Level New York Center
Wed 03:03:26 PM 41.7831 -77.6028 98° East 240 276 11,100  Level New York Center
Wed 03:04:26 PM 41.7714 -77.5153 100° East 240 276 11,100 50 Level New York Center
Wed 03:05:26 PM 41.7594 -77.4308 101° East 240 276 11,200  Climbing New York Center
Wed 03:06:26 PM 41.7458 -77.3431 102° East 240 276 11,100 -50 Descending New York Center
Wed 03:07:26 PM 41.7317 -77.2583 103° East 240 276 11,100 -450 Level New York Center
Wed 03:08:26 PM 41.7164 -77.1569 101° East 246 283 10,200 -1,050 Descending New York Center
Wed 03:09:26 PM 41.7008 -77.0581 102° East 251 289 9,000 -600 Descending New York Center
Wed 03:10:26 PM 41.6867 -76.9678 102° East 251 289 9,000  Level New York Center
Wed 03:11:26 PM 41.6742 -76.8889 102° East 240 276 9,000  Level New York Center
Wed 03:12:26 PM 41.6597 -76.8042 103° East 230 265 9,000  Level New York Center
Wed 03:13:26 PM 41.6492 -76.7256 100° East 223 257 9,000 50 Level New York Center
Wed 03:14:26 PM 41.6361 -76.6494 103° East 229 264 9,100 50 Climbing New York Center
Wed 03:15:26 PM 41.6236 -76.5678 102° East 224 258 9,100 -50 Level New York Center
Wed 03:16:26 PM 41.6092 -76.4778 102° East 224 258 9,000 -650 Descending New York Center
Wed 03:17:26 PM 41.5947 -76.3906 102° East 233 268 7,800 -1,000 Descending New York Center
Wed 03:18:26 PM 41.5800 -76.3033 103° East 238 274 7,000 -700 Descending New York Center
Wed 03:19:26 PM 41.5667 -76.2331 104° East 224 258 6,400 -750 Descending New York Center
Wed 03:20:26 PM 41.5536 -76.1517 102° East 212 244 5,500 -950 Descending New York Center
Wed 03:21:26 PM 41.5464 -76.0789 98° East 207 238 4,500 -600 Descending New York Center
Wed 03:22:26 PM 41.5331 -76.0086 104° East 202 232 4,300 2,250 Descending New York Center
Wed 03:23:26 PM 41.5194 -75.9383 104° East 202 232 9,000 2,350 Climbing New York Center
Wed 03:24:26 PM 41.5078 -75.8681 102° East 202 232 9,000  Level New York Center
Wed 03:25:26 PM 41.4942 -75.7978 104° East 202 232 9,000  Level New York Center
Wed 03:26:26 PM 41.4892 -75.7697 103° East 202 232 9,000  Level New York Center
Wed 03:27:26 PM 41.4892 -75.7697 207° Southwest 202 232 9,000  Level New York Center
Wed 03:29:00 PM 41.5104 -75.8959 283° West  Level FlightAware Approximate
Wed 03:36:00 PM 41.5167 -75.9333 285° West  Level FlightAware Approximate
Wed 03:37:00 PM 41.5292 -75.9469 285° West  Level Estimated
Wed 03:38:00 PM 41.5292 -75.9469 285° West  Level Estimated
Wed 03:39:00 PM 41.5292 -75.9469 285° West  Level Estimated
Wed 03:40:00 PM 41.5292 -75.9469 285° West  Level Estimated
Wed 03:41:00 PM 41.5292 -75.9469 285° West  Level Estimated
Wed 03:42:00 PM 41.5292 -75.9469 285° West  Level Estimated
Wed 03:43:00 PM 41.5292 -75.9469 285° West  Level Estimated

Login

Don't have an account? Register now (free) for customized features, flight alerts, and more!